sensor_id;sensor_type;location;lat;lon;timestamp;P1;durP1;ratioP1;P2;durP2;ratioP2
37299;SDS011;23184;51.902;12.836;2022-10-01T00:00:11;22.90;;;14.60;;
37299;SDS011;23184;51.902;12.836;2022-10-01T00:02:37;20.05;;;13.57;;
37299;SDS011;23184;51.902;12.836;2022-10-01T00:05:04;21.83;;;15.38;;
37299;SDS011;23184;51.902;12.836;2022-10-01T00:07:36;19.75;;;14.02;;
37299;SDS011;23184;51.902;12.836;2022-10-01T00:10:05;21.73;;;14.60;;
37299;SDS011;23184;51.902;12.836;2022-10-01T00:12:32;19.42;;;13.25;;
37299;SDS011;23184;51.902;12.836;2022-10-01T00:14:58;17.23;;;12.65;;
37299;SDS011;23184;51.902;12.836;2022-10-01T00:17:24;20.45;;;13.38;;
37299;SDS011;23184;51.902;12.836;2022-10-01T00:19:50;20.10;;;12.98;;
37299;SDS011;23184;51.902;12.836;2022-10-01T00:22:15;19.10;;;12.93;;
37299;SDS011;23184;51.902;12.836;2022-10-01T00:24:43;21.65;;;13.73;;
37299;SDS011;23184;51.902;12.836;2022-10-01T00:27:10;20.88;;;13.60;;
37299;SDS011;23184;51.902;12.836;2022-10-01T00:29:36;23.77;;;13.98;;
37299;SDS011;23184;51.902;12.836;2022-10-01T00:32:02;25.20;;;13.85;;
37299;SDS011;23184;51.902;12.836;2022-10-01T00:34:27;17.58;;;13.68;;
37299;SDS011;23184;51.902;12.836;2022-10-01T00:36:53;20.70;;;13.48;;
37299;SDS011;23184;51.902;12.836;2022-10-01T00:39:18;20.67;;;15.07;;
37299;SDS011;23184;51.902;12.836;2022-10-01T00:41:44;19.10;;;13.93;;
37299;SDS011;23184;51.902;12.836;2022-10-01T00:46:58;17.73;;;12.38;;
37299;SDS011;23184;51.902;12.836;2022-10-01T00:49:30;18.05;;;12.90;;
37299;SDS011;23184;51.902;12.836;2022-10-01T00:52:00;22.42;;;13.35;;
37299;SDS011;23184;51.902;12.836;2022-10-01T00:54:42;19.70;;;12.85;;
37299;SDS011;23184;51.902;12.836;2022-10-01T00:57:14;25.10;;;13.93;;
37299;SDS011;23184;51.902;12.836;2022-10-01T00:59:42;18.50;;;13.10;;
37299;SDS011;23184;51.902;12.836;2022-10-01T01:02:09;21.58;;;13.23;;
37299;SDS011;23184;51.902;12.836;2022-10-01T01:04:36;18.92;;;13.15;;
37299;SDS011;23184;51.902;12.836;2022-10-01T01:07:03;20.08;;;13.45;;
37299;SDS011;23184;51.902;12.836;2022-10-01T01:09:32;20.45;;;13.55;;
37299;SDS011;23184;51.902;12.836;2022-10-01T01:14:50;23.80;;;13.82;;
37299;SDS011;23184;51.902;12.836;2022-10-01T01:17:52;20.33;;;13.15;;
37299;SDS011;23184;51.902;12.836;2022-10-01T01:31:02;21.00;;;13.70;;
37299;SDS011;23184;51.902;12.836;2022-10-01T01:33:32;20.77;;;13.88;;
37299;SDS011;23184;51.902;12.836;2022-10-01T01:36:03;19.73;;;12.90;;
37299;SDS011;23184;51.902;12.836;2022-10-01T01:38:34;21.10;;;13.32;;
37299;SDS011;23184;51.902;12.836;2022-10-01T01:41:04;20.52;;;13.02;;
37299;SDS011;23184;51.902;12.836;2022-10-01T01:43:35;20.83;;;12.55;;
37299;SDS011;23184;51.902;12.836;2022-10-01T01:46:04;20.45;;;12.70;;
37299;SDS011;23184;51.902;12.836;2022-10-01T01:48:34;21.25;;;12.52;;
37299;SDS011;23184;51.902;12.836;2022-10-01T01:51:07;17.33;;;12.45;;
37299;SDS011;23184;51.902;12.836;2022-10-01T01:53:50;19.67;;;11.85;;
37299;SDS011;23184;51.902;12.836;2022-10-01T01:56:16;17.63;;;11.25;;
37299;SDS011;23184;51.902;12.836;2022-10-01T01:58:42;17.75;;;10.98;;
37299;SDS011;23184;51.902;12.836;2022-10-01T02:04:15;17.38;;;10.38;;
37299;SDS011;23184;51.902;12.836;2022-10-01T02:09:40;15.25;;;9.20;;
37299;SDS011;23184;51.902;12.836;2022-10-01T02:15:58;17.15;;;9.50;;
37299;SDS011;23184;51.902;12.836;2022-10-01T02:18:29;15.25;;;9.10;;
37299;SDS011;23184;51.902;12.836;2022-10-01T02:21:02;15.63;;;9.55;;
37299;SDS011;23184;51.902;12.836;2022-10-01T02:23:34;13.80;;;8.55;;
37299;SDS011;23184;51.902;12.836;2022-10-01T02:26:06;11.75;;;8.73;;
37299;SDS011;23184;51.902;12.836;2022-10-01T02:28:36;14.38;;;8.57;;
37299;SDS011;23184;51.902;12.836;2022-10-01T02:31:03;12.27;;;8.80;;
37299;SDS011;23184;51.902;12.836;2022-10-01T02:33:30;12.32;;;8.18;;
37299;SDS011;23184;51.902;12.836;2022-10-01T02:35:58;16.08;;;7.68;;
37299;SDS011;23184;51.902;12.836;2022-10-01T02:38:25;11.43;;;7.68;;
37299;SDS011;23184;51.902;12.836;2022-10-01T02:40:53;13.70;;;8.45;;
37299;SDS011;23184;51.902;12.836;2022-10-01T02:43:26;12.88;;;8.38;;
37299;SDS011;23184;51.902;12.836;2022-10-01T02:46:05;14.30;;;8.10;;
37299;SDS011;23184;51.902;12.836;2022-10-01T02:48:41;13.68;;;8.65;;
37299;SDS011;23184;51.902;12.836;2022-10-01T02:53:46;14.50;;;8.10;;
37299;SDS011;23184;51.902;12.836;2022-10-01T02:56:21;11.52;;;7.28;;
37299;SDS011;23184;51.902;12.836;2022-10-01T02:59:07;11.93;;;7.30;;
37299;SDS011;23184;51.902;12.836;2022-10-01T03:01:33;11.95;;;7.90;;
37299;SDS011;23184;51.902;12.836;2022-10-01T03:04:00;13.82;;;7.38;;
37299;SDS011;23184;51.902;12.836;2022-10-01T03:06:26;12.70;;;7.68;;
37299;SDS011;23184;51.902;12.836;2022-10-01T03:08:52;11.90;;;7.57;;
37299;SDS011;23184;51.902;12.836;2022-10-01T03:11:17;11.80;;;6.95;;
37299;SDS011;23184;51.902;12.836;2022-10-01T03:13:45;10.23;;;6.90;;
37299;SDS011;23184;51.902;12.836;2022-10-01T03:16:10;11.13;;;6.80;;
37299;SDS011;23184;51.902;12.836;2022-10-01T03:18:36;11.02;;;6.88;;
37299;SDS011;23184;51.902;12.836;2022-10-01T03:21:01;13.15;;;6.95;;
37299;SDS011;23184;51.902;12.836;2022-10-01T03:23:27;11.52;;;6.47;;
37299;SDS011;23184;51.902;12.836;2022-10-01T03:25:52;9.15;;;6.63;;
37299;SDS011;23184;51.902;12.836;2022-10-01T03:28:18;10.40;;;7.00;;
37299;SDS011;23184;51.902;12.836;2022-10-01T03:30:43;10.35;;;6.97;;
37299;SDS011;23184;51.902;12.836;2022-10-01T03:33:09;11.20;;;6.88;;
37299;SDS011;23184;51.902;12.836;2022-10-01T03:35:34;10.88;;;7.00;;
37299;SDS011;23184;51.902;12.836;2022-10-01T03:38:00;13.93;;;6.53;;
37299;SDS011;23184;51.902;12.836;2022-10-01T03:40:26;11.10;;;6.97;;
37299;SDS011;23184;51.902;12.836;2022-10-01T03:42:52;10.10;;;7.15;;
37299;SDS011;23184;51.902;12.836;2022-10-01T03:45:18;9.43;;;6.57;;
37299;SDS011;23184;51.902;12.836;2022-10-01T03:47:43;12.70;;;7.10;;
37299;SDS011;23184;51.902;12.836;2022-10-01T03:50:15;11.02;;;6.68;;
37299;SDS011;23184;51.902;12.836;2022-10-01T03:52:41;15.55;;;6.93;;
37299;SDS011;23184;51.902;12.836;2022-10-01T03:55:08;13.57;;;6.93;;
37299;SDS011;23184;51.902;12.836;2022-10-01T03:57:34;9.85;;;7.32;;
37299;SDS011;23184;51.902;12.836;2022-10-01T03:59:59;11.00;;;7.18;;
37299;SDS011;23184;51.902;12.836;2022-10-01T04:02:25;12.10;;;6.78;;
37299;SDS011;23184;51.902;12.836;2022-10-01T04:04:51;12.57;;;7.00;;
37299;SDS011;23184;51.902;12.836;2022-10-01T04:07:17;11.95;;;7.30;;
37299;SDS011;23184;51.902;12.836;2022-10-01T04:09:42;12.68;;;6.97;;
37299;SDS011;23184;51.902;12.836;2022-10-01T04:12:07;10.20;;;6.95;;
37299;SDS011;23184;51.902;12.836;2022-10-01T04:14:33;11.43;;;6.35;;
37299;SDS011;23184;51.902;12.836;2022-10-01T04:16:59;14.02;;;7.13;;
37299;SDS011;23184;51.902;12.836;2022-10-01T04:19:24;13.10;;;7.07;;
37299;SDS011;23184;51.902;12.836;2022-10-01T04:21:50;11.50;;;7.50;;
37299;SDS011;23184;51.902;12.836;2022-10-01T04:24:15;10.48;;;6.80;;
37299;SDS011;23184;51.902;12.836;2022-10-01T04:26:41;9.75;;;7.20;;
37299;SDS011;23184;51.902;12.836;2022-10-01T04:29:06;13.65;;;7.95;;
37299;SDS011;23184;51.902;12.836;2022-10-01T04:31:32;8.88;;;6.30;;
37299;SDS011;23184;51.902;12.836;2022-10-01T04:33:58;14.73;;;8.30;;
37299;SDS011;23184;51.902;12.836;2022-10-01T04:36:24;13.30;;;7.38;;
37299;SDS011;23184;51.902;12.836;2022-10-01T04:38:53;13.43;;;8.18;;
37299;SDS011;23184;51.902;12.836;2022-10-01T04:41:20;11.48;;;6.82;;
37299;SDS011;23184;51.902;12.836;2022-10-01T04:43:46;10.65;;;7.28;;
37299;SDS011;23184;51.902;12.836;2022-10-01T04:46:12;11.77;;;7.43;;
37299;SDS011;23184;51.902;12.836;2022-10-01T04:48:38;10.98;;;6.90;;
37299;SDS011;23184;51.902;12.836;2022-10-01T04:51:04;10.68;;;7.18;;
37299;SDS011;23184;51.902;12.836;2022-10-01T04:53:29;10.48;;;6.55;;
37299;SDS011;23184;51.902;12.836;2022-10-01T04:55:55;11.68;;;7.22;;
37299;SDS011;23184;51.902;12.836;2022-10-01T04:58:20;9.68;;;7.30;;
37299;SDS011;23184;51.902;12.836;2022-10-01T05:00:46;10.57;;;7.55;;
37299;SDS011;23184;51.902;12.836;2022-10-01T05:03:13;8.80;;;6.63;;
37299;SDS011;23184;51.902;12.836;2022-10-01T05:05:38;9.40;;;6.78;;
37299;SDS011;23184;51.902;12.836;2022-10-01T05:08:04;12.82;;;7.07;;
37299;SDS011;23184;51.902;12.836;2022-10-01T05:10:31;9.88;;;6.80;;
37299;SDS011;23184;51.902;12.836;2022-10-01T05:12:56;13.52;;;7.32;;
37299;SDS011;23184;51.902;12.836;2022-10-01T05:15:25;10.65;;;6.82;;
37299;SDS011;23184;51.902;12.836;2022-10-01T05:17:50;13.43;;;7.60;;
37299;SDS011;23184;51.902;12.836;2022-10-01T05:20:18;12.85;;;7.50;;
37299;SDS011;23184;51.902;12.836;2022-10-01T05:22:45;11.68;;;7.72;;
37299;SDS011;23184;51.902;12.836;2022-10-01T05:25:12;16.05;;;7.32;;
37299;SDS011;23184;51.902;12.836;2022-10-01T05:27:39;13.88;;;7.85;;
37299;SDS011;23184;51.902;12.836;2022-10-01T05:30:06;12.07;;;8.00;;
37299;SDS011;23184;51.902;12.836;2022-10-01T05:32:33;13.60;;;7.68;;
37299;SDS011;23184;51.902;12.836;2022-10-01T05:34:59;12.13;;;7.88;;
37299;SDS011;23184;51.902;12.836;2022-10-01T05:37:25;14.73;;;8.00;;
37299;SDS011;23184;51.902;12.836;2022-10-01T05:39:50;13.15;;;7.63;;
37299;SDS011;23184;51.902;12.836;2022-10-01T05:42:16;17.13;;;8.25;;
37299;SDS011;23184;51.902;12.836;2022-10-01T05:44:41;14.13;;;8.52;;
37299;SDS011;23184;51.902;12.836;2022-10-01T05:47:10;10.48;;;7.95;;
37299;SDS011;23184;51.902;12.836;2022-10-01T05:49:37;13.50;;;8.30;;
37299;SDS011;23184;51.902;12.836;2022-10-01T05:52:06;13.45;;;8.25;;
37299;SDS011;23184;51.902;12.836;2022-10-01T05:54:34;13.73;;;8.50;;
37299;SDS011;23184;51.902;12.836;2022-10-01T05:57:00;15.05;;;7.82;;
37299;SDS011;23184;51.902;12.836;2022-10-01T05:59:26;16.90;;;7.68;;
37299;SDS011;23184;51.902;12.836;2022-10-01T06:01:51;12.75;;;8.05;;
37299;SDS011;23184;51.902;12.836;2022-10-01T06:04:17;14.85;;;9.07;;
37299;SDS011;23184;51.902;12.836;2022-10-01T06:06:42;19.05;;;8.48;;
37299;SDS011;23184;51.902;12.836;2022-10-01T06:09:08;16.05;;;8.25;;
37299;SDS011;23184;51.902;12.836;2022-10-01T06:11:35;12.65;;;8.95;;
37299;SDS011;23184;51.902;12.836;2022-10-01T06:14:01;14.57;;;8.75;;
37299;SDS011;23184;51.902;12.836;2022-10-01T06:16:26;15.40;;;8.27;;
37299;SDS011;23184;51.902;12.836;2022-10-01T06:18:52;14.48;;;8.88;;
37299;SDS011;23184;51.902;12.836;2022-10-01T06:21:21;13.75;;;9.48;;
37299;SDS011;23184;51.902;12.836;2022-10-01T06:23:48;13.63;;;8.85;;
37299;SDS011;23184;51.902;12.836;2022-10-01T06:26:15;13.27;;;8.65;;
37299;SDS011;23184;51.902;12.836;2022-10-01T06:28:41;15.52;;;9.60;;
37299;SDS011;23184;51.902;12.836;2022-10-01T06:31:06;12.23;;;8.57;;
37299;SDS011;23184;51.902;12.836;2022-10-01T06:33:32;10.75;;;8.30;;
37299;SDS011;23184;51.902;12.836;2022-10-01T06:35:58;12.93;;;9.10;;
37299;SDS011;23184;51.902;12.836;2022-10-01T06:38:24;14.35;;;9.75;;
37299;SDS011;23184;51.902;12.836;2022-10-01T06:40:55;14.02;;;8.98;;
37299;SDS011;23184;51.902;12.836;2022-10-01T06:43:27;14.07;;;9.65;;
37299;SDS011;23184;51.902;12.836;2022-10-01T06:45:54;12.82;;;8.73;;
37299;SDS011;23184;51.902;12.836;2022-10-01T06:48:20;15.02;;;9.30;;
37299;SDS011;23184;51.902;12.836;2022-10-01T06:50:47;14.13;;;9.13;;
37299;SDS011;23184;51.902;12.836;2022-10-01T06:53:14;13.43;;;8.73;;
37299;SDS011;23184;51.902;12.836;2022-10-01T06:55:41;13.70;;;9.23;;
37299;SDS011;23184;51.902;12.836;2022-10-01T06:58:15;14.40;;;7.93;;
37299;SDS011;23184;51.902;12.836;2022-10-01T07:00:44;12.23;;;8.60;;
37299;SDS011;23184;51.902;12.836;2022-10-01T07:03:15;11.93;;;8.77;;
37299;SDS011;23184;51.902;12.836;2022-10-01T07:05:42;13.50;;;8.27;;
37299;SDS011;23184;51.902;12.836;2022-10-01T07:08:08;13.10;;;7.80;;
37299;SDS011;23184;51.902;12.836;2022-10-01T07:10:34;13.57;;;7.88;;
37299;SDS011;23184;51.902;12.836;2022-10-01T07:13:06;13.80;;;8.10;;
37299;SDS011;23184;51.902;12.836;2022-10-01T07:15:34;12.48;;;7.82;;
37299;SDS011;23184;51.902;12.836;2022-10-01T07:18:00;15.52;;;8.07;;
37299;SDS011;23184;51.902;12.836;2022-10-01T07:20:25;15.18;;;8.15;;
37299;SDS011;23184;51.902;12.836;2022-10-01T07:22:57;11.88;;;7.90;;
37299;SDS011;23184;51.902;12.836;2022-10-01T07:25:23;13.77;;;8.38;;
37299;SDS011;23184;51.902;12.836;2022-10-01T07:27:56;13.05;;;8.18;;
37299;SDS011;23184;51.902;12.836;2022-10-01T07:30:23;11.85;;;7.25;;
37299;SDS011;23184;51.902;12.836;2022-10-01T07:32:50;14.43;;;8.05;;
37299;SDS011;23184;51.902;12.836;2022-10-01T07:35:15;12.60;;;8.05;;
37299;SDS011;23184;51.902;12.836;2022-10-01T07:37:43;14.63;;;8.32;;
37299;SDS011;23184;51.902;12.836;2022-10-01T07:40:09;11.55;;;8.20;;
37299;SDS011;23184;51.902;12.836;2022-10-01T07:42:35;14.93;;;7.78;;
37299;SDS011;23184;51.902;12.836;2022-10-01T07:45:02;12.25;;;7.30;;
37299;SDS011;23184;51.902;12.836;2022-10-01T07:47:30;12.23;;;7.70;;
37299;SDS011;23184;51.902;12.836;2022-10-01T07:49:56;11.90;;;7.65;;
37299;SDS011;23184;51.902;12.836;2022-10-01T07:52:21;11.07;;;7.40;;
37299;SDS011;23184;51.902;12.836;2022-10-01T07:54:47;12.85;;;7.82;;
37299;SDS011;23184;51.902;12.836;2022-10-01T07:57:12;12.27;;;7.32;;
37299;SDS011;23184;51.902;12.836;2022-10-01T07:59:39;12.18;;;7.20;;
37299;SDS011;23184;51.902;12.836;2022-10-01T08:02:05;11.02;;;6.63;;
37299;SDS011;23184;51.902;12.836;2022-10-01T08:04:37;12.77;;;7.70;;
37299;SDS011;23184;51.902;12.836;2022-10-01T08:07:22;10.95;;;6.95;;
37299;SDS011;23184;51.902;12.836;2022-10-01T08:09:47;11.85;;;7.25;;
37299;SDS011;23184;51.902;12.836;2022-10-01T08:12:13;10.25;;;6.63;;
37299;SDS011;23184;51.902;12.836;2022-10-01T08:14:40;15.63;;;7.95;;
37299;SDS011;23184;51.902;12.836;2022-10-01T08:17:05;12.40;;;7.15;;
37299;SDS011;23184;51.902;12.836;2022-10-01T08:19:31;11.93;;;6.78;;
37299;SDS011;23184;51.902;12.836;2022-10-01T08:21:58;13.95;;;7.65;;
37299;SDS011;23184;51.902;12.836;2022-10-01T08:24:23;11.20;;;6.90;;
37299;SDS011;23184;51.902;12.836;2022-10-01T08:26:52;8.45;;;6.82;;
37299;SDS011;23184;51.902;12.836;2022-10-01T08:29:21;10.57;;;7.55;;
37299;SDS011;23184;51.902;12.836;2022-10-01T08:31:47;12.48;;;8.95;;
37299;SDS011;23184;51.902;12.836;2022-10-01T08:34:13;12.18;;;8.35;;
37299;SDS011;23184;51.902;12.836;2022-10-01T08:36:39;12.80;;;8.23;;
37299;SDS011;23184;51.902;12.836;2022-10-01T08:39:05;14.68;;;9.30;;
37299;SDS011;23184;51.902;12.836;2022-10-01T08:44:16;12.15;;;7.55;;
37299;SDS011;23184;51.902;12.836;2022-10-01T08:46:44;15.15;;;8.73;;
37299;SDS011;23184;51.902;12.836;2022-10-01T08:52:13;13.82;;;9.52;;
37299;SDS011;23184;51.902;12.836;2022-10-01T08:54:47;14.32;;;9.00;;
37299;SDS011;23184;51.902;12.836;2022-10-01T08:57:30;18.65;;;10.80;;
37299;SDS011;23184;51.902;12.836;2022-10-01T09:00:03;15.27;;;10.60;;
37299;SDS011;23184;51.902;12.836;2022-10-01T09:02:34;16.50;;;10.32;;
37299;SDS011;23184;51.902;12.836;2022-10-01T09:05:04;15.38;;;9.80;;
37299;SDS011;23184;51.902;12.836;2022-10-01T09:21:30;15.43;;;9.90;;
37299;SDS011;23184;51.902;12.836;2022-10-01T09:24:05;18.08;;;10.88;;
37299;SDS011;23184;51.902;12.836;2022-10-01T09:26:53;17.77;;;10.98;;
37299;SDS011;23184;51.902;12.836;2022-10-01T09:29:23;18.13;;;10.95;;
37299;SDS011;23184;51.902;12.836;2022-10-01T09:31:59;18.30;;;12.18;;
37299;SDS011;23184;51.902;12.836;2022-10-01T09:34:36;22.45;;;13.32;;
37299;SDS011;23184;51.902;12.836;2022-10-01T09:37:07;19.60;;;12.38;;
37299;SDS011;23184;51.902;12.836;2022-10-01T09:42:21;21.73;;;13.80;;
37299;SDS011;23184;51.902;12.836;2022-10-01T09:44:51;24.30;;;14.15;;
37299;SDS011;23184;51.902;12.836;2022-10-01T09:47:19;21.95;;;14.48;;
37299;SDS011;23184;51.902;12.836;2022-10-01T09:49:47;24.20;;;14.60;;
37299;SDS011;23184;51.902;12.836;2022-10-01T09:52:23;22.52;;;13.85;;
37299;SDS011;23184;51.902;12.836;2022-10-01T09:54:56;22.02;;;13.85;;
37299;SDS011;23184;51.902;12.836;2022-10-01T10:02:42;20.63;;;13.80;;
37299;SDS011;23184;51.902;12.836;2022-10-01T10:05:16;29.65;;;15.98;;
37299;SDS011;23184;51.902;12.836;2022-10-01T10:10:25;23.77;;;15.30;;
37299;SDS011;23184;51.902;12.836;2022-10-01T10:13:04;20.45;;;13.40;;
37299;SDS011;23184;51.902;12.836;2022-10-01T10:15:54;21.70;;;15.70;;
37299;SDS011;23184;51.902;12.836;2022-10-01T10:18:30;21.98;;;13.43;;
37299;SDS011;23184;51.902;12.836;2022-10-01T10:21:00;25.40;;;16.08;;
37299;SDS011;23184;51.902;12.836;2022-10-01T10:23:31;26.05;;;16.27;;
37299;SDS011;23184;51.902;12.836;2022-10-01T10:25:59;28.75;;;16.35;;
37299;SDS011;23184;51.902;12.836;2022-10-01T10:28:39;25.75;;;15.48;;
37299;SDS011;23184;51.902;12.836;2022-10-01T10:31:10;28.10;;;15.18;;
37299;SDS011;23184;51.902;12.836;2022-10-01T10:36:17;33.22;;;17.27;;
37299;SDS011;23184;51.902;12.836;2022-10-01T10:38:47;33.97;;;17.65;;
37299;SDS011;23184;51.902;12.836;2022-10-01T10:41:15;30.63;;;16.00;;
37299;SDS011;23184;51.902;12.836;2022-10-01T10:43:43;24.15;;;15.50;;
37299;SDS011;23184;51.902;12.836;2022-10-01T10:46:18;23.92;;;14.80;;
37299;SDS011;23184;51.902;12.836;2022-10-01T10:48:56;30.52;;;15.73;;
37299;SDS011;23184;51.902;12.836;2022-10-01T10:51:41;26.00;;;14.80;;
37299;SDS011;23184;51.902;12.836;2022-10-01T10:54:15;24.25;;;15.63;;
37299;SDS011;23184;51.902;12.836;2022-10-01T10:56:49;33.55;;;16.30;;
37299;SDS011;23184;51.902;12.836;2022-10-01T10:59:16;25.15;;;14.32;;
37299;SDS011;23184;51.902;12.836;2022-10-01T11:01:42;29.38;;;15.50;;
37299;SDS011;23184;51.902;12.836;2022-10-01T11:04:17;25.50;;;14.38;;
37299;SDS011;23184;51.902;12.836;2022-10-01T11:06:57;26.08;;;13.90;;
37299;SDS011;23184;51.902;12.836;2022-10-01T11:09:26;23.60;;;13.73;;
37299;SDS011;23184;51.902;12.836;2022-10-01T11:15:17;19.52;;;11.30;;
37299;SDS011;23184;51.902;12.836;2022-10-01T11:23:32;14.02;;;10.00;;
37299;SDS011;23184;51.902;12.836;2022-10-01T11:26:52;15.43;;;9.50;;
37299;SDS011;23184;51.902;12.836;2022-10-01T11:34:46;11.32;;;8.43;;
37299;SDS011;23184;51.902;12.836;2022-10-01T11:40:26;10.02;;;6.03;;
37299;SDS011;23184;51.902;12.836;2022-10-01T11:43:33;8.65;;;5.80;;
37299;SDS011;23184;51.902;12.836;2022-10-01T11:46:09;6.82;;;4.80;;
37299;SDS011;23184;51.902;12.836;2022-10-01T11:48:51;8.23;;;4.60;;
37299;SDS011;23184;51.902;12.836;2022-10-01T11:51:45;8.23;;;3.75;;
37299;SDS011;23184;51.902;12.836;2022-10-01T11:54:16;4.75;;;4.07;;
37299;SDS011;23184;51.902;12.836;2022-10-01T11:56:49;5.22;;;3.75;;
37299;SDS011;23184;51.902;12.836;2022-10-01T11:59:54;5.40;;;3.45;;
37299;SDS011;23184;51.902;12.836;2022-10-01T12:02:33;7.30;;;3.72;;
37299;SDS011;23184;51.902;12.836;2022-10-01T12:05:21;4.53;;;2.53;;
37299;SDS011;23184;51.902;12.836;2022-10-01T12:07:53;3.15;;;2.55;;
37299;SDS011;23184;51.902;12.836;2022-10-01T12:10:36;3.88;;;2.50;;
37299;SDS011;23184;51.902;12.836;2022-10-01T12:15:40;5.32;;;2.85;;
37299;SDS011;23184;51.902;12.836;2022-10-01T12:20:56;4.03;;;2.35;;
37299;SDS011;23184;51.902;12.836;2022-10-01T12:23:35;3.90;;;2.22;;
37299;SDS011;23184;51.902;12.836;2022-10-01T12:29:01;3.20;;;2.08;;
37299;SDS011;23184;51.902;12.836;2022-10-01T12:37:29;2.60;;;2.10;;
37299;SDS011;23184;51.902;12.836;2022-10-01T12:40:14;3.40;;;1.73;;
37299;SDS011;23184;51.902;12.836;2022-10-01T12:47:45;3.25;;;2.00;;
37299;SDS011;23184;51.902;12.836;2022-10-01T12:50:25;2.58;;;2.10;;
37299;SDS011;23184;51.902;12.836;2022-10-01T12:59:02;2.50;;;2.20;;
37299;SDS011;23184;51.902;12.836;2022-10-01T13:02:18;3.20;;;1.48;;
37299;SDS011;23184;51.902;12.836;2022-10-01T13:08:01;2.88;;;1.73;;
37299;SDS011;23184;51.902;12.836;2022-10-01T13:10:53;3.25;;;1.48;;
37299;SDS011;23184;51.902;12.836;2022-10-01T13:13:28;1.98;;;1.30;;
37299;SDS011;23184;51.902;12.836;2022-10-01T13:18:34;2.63;;;1.07;;
37299;SDS011;23184;51.902;12.836;2022-10-01T13:21:18;2.08;;;1.15;;
37299;SDS011;23184;51.902;12.836;2022-10-01T13:32:22;1.60;;;0.95;;
37299;SDS011;23184;51.902;12.836;2022-10-01T13:34:21;1.10;;;1.00;;
37299;SDS011;23184;51.902;12.836;2022-10-01T13:36:50;1.38;;;0.95;;
37299;SDS011;23184;51.902;12.836;2022-10-01T13:39:20;1.95;;;1.20;;
37299;SDS011;23184;51.902;12.836;2022-10-01T13:41:47;1.52;;;0.90;;
37299;SDS011;23184;51.902;12.836;2022-10-01T13:44:33;0.95;;;0.80;;
37299;SDS011;23184;51.902;12.836;2022-10-01T13:47:03;1.05;;;0.80;;
37299;SDS011;23184;51.902;12.836;2022-10-01T13:49:32;1.88;;;0.70;;
37299;SDS011;23184;51.902;12.836;2022-10-01T13:51:58;1.00;;;0.80;;
37299;SDS011;23184;51.902;12.836;2022-10-01T13:54:35;1.73;;;0.90;;
37299;SDS011;23184;51.902;12.836;2022-10-01T13:57:09;0.75;;;0.75;;
37299;SDS011;23184;51.902;12.836;2022-10-01T14:05:53;3.60;;;0.80;;
37299;SDS011;23184;51.902;12.836;2022-10-01T14:11:08;1.92;;;0.85;;
37299;SDS011;23184;51.902;12.836;2022-10-01T14:14:08;0.73;;;0.70;;
37299;SDS011;23184;51.902;12.836;2022-10-01T14:16:56;1.92;;;0.90;;
37299;SDS011;23184;51.902;12.836;2022-10-01T14:19:23;1.45;;;0.90;;
37299;SDS011;23184;51.902;12.836;2022-10-01T14:27:21;3.42;;;1.10;;
37299;SDS011;23184;51.902;12.836;2022-10-01T14:30:10;2.30;;;1.10;;
37299;SDS011;23184;51.902;12.836;2022-10-01T14:38:10;1.90;;;0.90;;
37299;SDS011;23184;51.902;12.836;2022-10-01T14:40:42;0.95;;;0.75;;
37299;SDS011;23184;51.902;12.836;2022-10-01T14:43:17;1.25;;;0.85;;
37299;SDS011;23184;51.902;12.836;2022-10-01T14:45:54;1.90;;;1.00;;
37299;SDS011;23184;51.902;12.836;2022-10-01T14:48:23;1.50;;;1.00;;
37299;SDS011;23184;51.902;12.836;2022-10-01T14:50:57;3.53;;;1.00;;
37299;SDS011;23184;51.902;12.836;2022-10-01T14:53:26;0.90;;;0.88;;
37299;SDS011;23184;51.902;12.836;2022-10-01T14:55:54;1.67;;;0.85;;
37299;SDS011;23184;51.902;12.836;2022-10-01T14:58:29;1.52;;;0.90;;
37299;SDS011;23184;51.902;12.836;2022-10-01T15:01:16;1.25;;;0.90;;
37299;SDS011;23184;51.902;12.836;2022-10-01T15:03:43;1.40;;;0.80;;
37299;SDS011;23184;51.902;12.836;2022-10-01T15:06:42;2.95;;;0.90;;
37299;SDS011;23184;51.902;12.836;2022-10-01T15:09:13;0.90;;;0.85;;
37299;SDS011;23184;51.902;12.836;2022-10-01T15:11:42;1.08;;;0.80;;
37299;SDS011;23184;51.902;12.836;2022-10-01T15:14:15;1.30;;;0.70;;
37299;SDS011;23184;51.902;12.836;2022-10-01T15:16:44;1.35;;;0.68;;
37299;SDS011;23184;51.902;12.836;2022-10-01T15:19:14;0.82;;;0.60;;
37299;SDS011;23184;51.902;12.836;2022-10-01T15:21:50;1.73;;;0.80;;
37299;SDS011;23184;51.902;12.836;2022-10-01T15:24:22;2.92;;;0.88;;
37299;SDS011;23184;51.902;12.836;2022-10-01T15:26:52;1.20;;;0.70;;
37299;SDS011;23184;51.902;12.836;2022-10-01T15:29:20;2.88;;;0.80;;
37299;SDS011;23184;51.902;12.836;2022-10-01T15:31:46;1.13;;;0.90;;
37299;SDS011;23184;51.902;12.836;2022-10-01T15:34:15;2.40;;;1.05;;
37299;SDS011;23184;51.902;12.836;2022-10-01T15:36:43;2.47;;;0.85;;
37299;SDS011;23184;51.902;12.836;2022-10-01T15:39:25;2.08;;;0.90;;
37299;SDS011;23184;51.902;12.836;2022-10-01T15:55:19;1.90;;;1.10;;
37299;SDS011;23184;51.902;12.836;2022-10-01T15:58:04;1.20;;;0.90;;
37299;SDS011;23184;51.902;12.836;2022-10-01T16:00:40;1.27;;;1.00;;
37299;SDS011;23184;51.902;12.836;2022-10-01T16:05:52;3.50;;;1.00;;
37299;SDS011;23184;51.902;12.836;2022-10-01T16:08:19;1.20;;;1.00;;
37299;SDS011;23184;51.902;12.836;2022-10-01T16:11:07;1.70;;;1.00;;
37299;SDS011;23184;51.902;12.836;2022-10-01T16:13:34;2.22;;;1.10;;
37299;SDS011;23184;51.902;12.836;2022-10-01T16:21:20;1.75;;;0.93;;
37299;SDS011;23184;51.902;12.836;2022-10-01T16:23:49;1.65;;;0.90;;
37299;SDS011;23184;51.902;12.836;2022-10-01T16:28:54;5.18;;;1.15;;
37299;SDS011;23184;51.902;12.836;2022-10-01T16:31:22;1.50;;;1.02;;
37299;SDS011;23184;51.902;12.836;2022-10-01T16:33:49;3.33;;;1.27;;
37299;SDS011;23184;51.902;12.836;2022-10-01T16:36:15;1.60;;;1.00;;
37299;SDS011;23184;51.902;12.836;2022-10-01T16:38:47;3.92;;;1.42;;
37299;SDS011;23184;51.902;12.836;2022-10-01T16:41:16;3.00;;;1.20;;
37299;SDS011;23184;51.902;12.836;2022-10-01T16:43:46;1.55;;;1.00;;
37299;SDS011;23184;51.902;12.836;2022-10-01T16:46:12;1.27;;;0.80;;
37299;SDS011;23184;51.902;12.836;2022-10-01T16:48:38;2.90;;;0.90;;
37299;SDS011;23184;51.902;12.836;2022-10-01T16:51:03;2.72;;;1.23;;
37299;SDS011;23184;51.902;12.836;2022-10-01T16:53:29;3.60;;;1.35;;
37299;SDS011;23184;51.902;12.836;2022-10-01T16:55:54;7.30;;;3.00;;
37299;SDS011;23184;51.902;12.836;2022-10-01T16:58:22;4.38;;;2.00;;
37299;SDS011;23184;51.902;12.836;2022-10-01T17:00:48;8.50;;;4.20;;
37299;SDS011;23184;51.902;12.836;2022-10-01T17:03:18;5.40;;;2.83;;
37299;SDS011;23184;51.902;12.836;2022-10-01T17:05:46;4.70;;;2.40;;
37299;SDS011;23184;51.902;12.836;2022-10-01T17:08:12;3.33;;;2.03;;
37299;SDS011;23184;51.902;12.836;2022-10-01T17:10:43;6.95;;;2.22;;
37299;SDS011;23184;51.902;12.836;2022-10-01T17:13:16;4.40;;;1.75;;
37299;SDS011;23184;51.902;12.836;2022-10-01T17:15:41;2.15;;;1.40;;
37299;SDS011;23184;51.902;12.836;2022-10-01T17:18:07;2.53;;;1.42;;
37299;SDS011;23184;51.902;12.836;2022-10-01T17:20:33;2.80;;;1.20;;
37299;SDS011;23184;51.902;12.836;2022-10-01T17:23:00;1.20;;;1.10;;